Airfield :







YOU CAN JOIN US ON...

 
LOGIN :

Register | Disclaimer

   EN    FR    IT 

 









Legend :    VFR   Marginal VFR   IFR   Intensive IFR   Very Intensive IFR
Visi :
Ceiling :
>= 8 km
>= 3000ft
5 to 8 km
1000 to 3000 ft
1500m to 5 km
500 to 1000 ft
800 to 1500m
200 to 500 ft
< 800m
< 200 ft
Symbols :   Thunderstorms  Fog  Heavy snow  Heavy precipitations  Wind > 20 kt







- Airport Elevation : 20 ft
- IATA code : BOS


KBOS - General Edward Lawrence Logan International

CURRENT METAR :
  • 230554Z 03013KT 3SM BR OVC004 09/08 A2992 RMK AO2 VIS 1 3/4 E RAE34 SLP130 P0001 60085 T00890078 10128 20089 56011 $

EXPIRED METARs :
  • 230407Z 02010KT 3SM RA BR FEW007 BKN016 OVC040 10/08 A2993 RMK AO2 P0002 T01000083 $
  • 230354Z 02013KT 3SM -RA BR FEW007 OVC014 10/08 A2994 RMK AO2 CIG 004 E SLP136 P0007 T01000083 $
  • 230254Z 04012KT 2 1/2SM -RA BR BKN007 OVC012 11/10 A2995 RMK AO2 SLP141 P0011 60067 T01110100 58013 $

TAF KBOS
Valid from the 23 at 06:00 until the 24 at 12:00 UTC


230525Z 2306/2412 02012KT 3SM -RA BR SCT008 OVC015
FM231000 01014KT 3SM BR VCSH OVC008
FM231500 02014KT P6SM OVC015
FM231800 06010KT P6SM BKN025
FM232200 07007KT P6SM BKN050
FM240300 14008KT 6SM BR VCSH OVC020
KZBW FIR / North America



MET'MAP, your aeronautical weather chart ! - Copyright ORBIFLY December 2007 - Disclaimer

ORBIFLY MET'MAP TEAM :

Programming & Development : Alexandra Zaïnal
Concept & Development : Baudouin d'Aumeries
Co-Development & Prog : Marc-Olivier Méhu
Technical & hardware support : Manuel Goepfert

Contact : metmap@orbifly.com




SOURCES & CREDITS :

   NOAA